sensor_id;sensor_type;location;lat;lon;timestamp;P1;durP1;ratioP1;P2;durP2;ratioP2
43337;SDS011;28933;52.492;13.434;2024-01-15T06:29:14;4.35;;;2.35;;
43337;SDS011;28933;52.492;13.434;2024-01-15T06:32:00;6.07;;;1.98;;
43337;SDS011;28933;52.492;13.434;2024-01-15T06:34:46;7.25;;;3.15;;
43337;SDS011;28933;52.492;13.434;2024-01-15T06:37:32;5.00;;;2.30;;
43337;SDS011;28933;52.492;13.434;2024-01-15T06:40:18;6.85;;;2.58;;
43337;SDS011;28933;52.492;13.434;2024-01-15T06:43:04;5.68;;;2.40;;
43337;SDS011;28933;52.492;13.434;2024-01-15T06:45:50;6.53;;;2.20;;
43337;SDS011;28933;52.492;13.434;2024-01-15T06:48:36;5.18;;;2.28;;
43337;SDS011;28933;52.492;13.434;2024-01-15T06:51:22;4.80;;;2.25;;
43337;SDS011;28933;52.492;13.434;2024-01-15T06:54:08;10.10;;;3.45;;
43337;SDS011;28933;52.492;13.434;2024-01-15T06:56:54;4.07;;;2.05;;
43337;SDS011;28933;52.492;13.434;2024-01-15T06:59:40;4.45;;;2.40;;
43337;SDS011;28933;52.492;13.434;2024-01-15T07:02:26;8.32;;;2.03;;
43337;SDS011;28933;52.492;13.434;2024-01-15T07:05:12;7.65;;;2.83;;
43337;SDS011;28933;52.492;13.434;2024-01-15T07:07:58;6.95;;;2.50;;
43337;SDS011;28933;52.492;13.434;2024-01-15T07:10:44;8.82;;;2.78;;
43337;SDS011;28933;52.492;13.434;2024-01-15T07:13:30;4.10;;;1.90;;
43337;SDS011;28933;52.492;13.434;2024-01-15T07:16:16;7.18;;;3.13;;
43337;SDS011;28933;52.492;13.434;2024-01-15T07:19:02;8.18;;;2.50;;
43337;SDS011;28933;52.492;13.434;2024-01-15T07:21:48;7.47;;;1.80;;
43337;SDS011;28933;52.492;13.434;2024-01-15T07:24:34;5.85;;;2.00;;
43337;SDS011;28933;52.492;13.434;2024-01-15T07:27:20;5.85;;;2.10;;
43337;SDS011;28933;52.492;13.434;2024-01-15T07:30:06;5.68;;;2.03;;
43337;SDS011;28933;52.492;13.434;2024-01-15T07:32:52;5.30;;;2.33;;
43337;SDS011;28933;52.492;13.434;2024-01-15T07:35:38;4.53;;;1.73;;
43337;SDS011;28933;52.492;13.434;2024-01-15T07:38:24;5.55;;;2.58;;
43337;SDS011;28933;52.492;13.434;2024-01-15T07:41:10;5.57;;;2.15;;
43337;SDS011;28933;52.492;13.434;2024-01-15T07:43:57;8.10;;;2.70;;
43337;SDS011;28933;52.492;13.434;2024-01-15T07:46:46;8.80;;;3.08;;
43337;SDS011;28933;52.492;13.434;2024-01-15T07:49:32;5.32;;;2.53;;
43337;SDS011;28933;52.492;13.434;2024-01-15T07:52:18;7.03;;;2.17;;
43337;SDS011;28933;52.492;13.434;2024-01-15T07:55:04;15.40;;;2.85;;
43337;SDS011;28933;52.492;13.434;2024-01-15T07:57:51;7.20;;;2.20;;
43337;SDS011;28933;52.492;13.434;2024-01-15T08:00:38;3.67;;;1.83;;
43337;SDS011;28933;52.492;13.434;2024-01-15T08:03:24;8.70;;;2.35;;
43337;SDS011;28933;52.492;13.434;2024-01-15T08:06:10;7.35;;;2.60;;
43337;SDS011;28933;52.492;13.434;2024-01-15T08:08:56;5.90;;;2.45;;
43337;SDS011;28933;52.492;13.434;2024-01-15T08:11:42;7.72;;;2.95;;
43337;SDS011;28933;52.492;13.434;2024-01-15T08:14:28;7.25;;;2.50;;
43337;SDS011;28933;52.492;13.434;2024-01-15T08:17:14;4.82;;;2.15;;
43337;SDS011;28933;52.492;13.434;2024-01-15T08:20:01;4.82;;;2.13;;
43337;SDS011;28933;52.492;13.434;2024-01-15T08:22:48;7.88;;;2.33;;
43337;SDS011;28933;52.492;13.434;2024-01-15T08:25:34;12.85;;;3.35;;
43337;SDS011;28933;52.492;13.434;2024-01-15T08:28:20;7.13;;;2.67;;
43337;SDS011;28933;52.492;13.434;2024-01-15T08:31:05;6.88;;;1.83;;
43337;SDS011;28933;52.492;13.434;2024-01-15T08:33:51;5.25;;;1.98;;
43337;SDS011;28933;52.492;13.434;2024-01-15T08:36:37;5.22;;;2.00;;
43337;SDS011;28933;52.492;13.434;2024-01-15T08:39:23;8.50;;;2.65;;
43337;SDS011;28933;52.492;13.434;2024-01-15T08:42:09;8.07;;;2.78;;
43337;SDS011;28933;52.492;13.434;2024-01-15T08:44:56;5.78;;;2.13;;
43337;SDS011;28933;52.492;13.434;2024-01-15T08:47:42;5.85;;;2.47;;
43337;SDS011;28933;52.492;13.434;2024-01-15T08:50:28;8.43;;;3.05;;
43337;SDS011;28933;52.492;13.434;2024-01-15T08:53:15;5.07;;;2.03;;
43337;SDS011;28933;52.492;13.434;2024-01-15T08:56:01;7.22;;;2.35;;
43337;SDS011;28933;52.492;13.434;2024-01-15T08:58:47;5.95;;;2.47;;
43337;SDS011;28933;52.492;13.434;2024-01-15T09:01:33;6.13;;;2.15;;
43337;SDS011;28933;52.492;13.434;2024-01-15T09:04:19;7.35;;;3.25;;
43337;SDS011;28933;52.492;13.434;2024-01-15T09:07:05;4.57;;;2.00;;
43337;SDS011;28933;52.492;13.434;2024-01-15T09:09:51;6.75;;;3.08;;
43337;SDS011;28933;52.492;13.434;2024-01-15T09:12:37;6.45;;;2.85;;
43337;SDS011;28933;52.492;13.434;2024-01-15T09:15:24;4.70;;;1.83;;
43337;SDS011;28933;52.492;13.434;2024-01-15T09:18:10;8.68;;;2.50;;
43337;SDS011;28933;52.492;13.434;2024-01-15T09:20:56;5.82;;;2.22;;
43337;SDS011;28933;52.492;13.434;2024-01-15T09:23:42;6.45;;;2.10;;
43337;SDS011;28933;52.492;13.434;2024-01-15T09:26:28;6.05;;;2.05;;
43337;SDS011;28933;52.492;13.434;2024-01-15T09:29:14;4.25;;;2.08;;
43337;SDS011;28933;52.492;13.434;2024-01-15T09:32:01;6.03;;;2.92;;
43337;SDS011;28933;52.492;13.434;2024-01-15T09:34:48;7.78;;;2.83;;
43337;SDS011;28933;52.492;13.434;2024-01-15T09:37:34;6.15;;;2.35;;
43337;SDS011;28933;52.492;13.434;2024-01-15T09:40:20;6.63;;;2.55;;
43337;SDS011;28933;52.492;13.434;2024-01-15T09:43:07;4.72;;;2.35;;
43337;SDS011;28933;52.492;13.434;2024-01-15T09:45:53;8.25;;;2.13;;
43337;SDS011;28933;52.492;13.434;2024-01-15T09:48:40;6.65;;;2.33;;
43337;SDS011;28933;52.492;13.434;2024-01-15T09:51:26;5.45;;;2.20;;
43337;SDS011;28933;52.492;13.434;2024-01-15T09:54:12;5.97;;;2.20;;
43337;SDS011;28933;52.492;13.434;2024-01-15T09:57:00;4.85;;;1.90;;
43337;SDS011;28933;52.492;13.434;2024-01-15T09:59:46;4.47;;;2.30;;
43337;SDS011;28933;52.492;13.434;2024-01-15T10:02:33;7.72;;;2.67;;
43337;SDS011;28933;52.492;13.434;2024-01-15T10:05:21;9.20;;;2.67;;
43337;SDS011;28933;52.492;13.434;2024-01-15T10:08:07;5.43;;;1.90;;
43337;SDS011;28933;52.492;13.434;2024-01-15T10:10:52;4.68;;;2.22;;
43337;SDS011;28933;52.492;13.434;2024-01-15T10:13:39;4.13;;;1.63;;
43337;SDS011;28933;52.492;13.434;2024-01-15T10:16:25;4.60;;;1.90;;
43337;SDS011;28933;52.492;13.434;2024-01-15T10:19:11;4.32;;;2.40;;
43337;SDS011;28933;52.492;13.434;2024-01-15T10:21:57;5.00;;;2.08;;
43337;SDS011;28933;52.492;13.434;2024-01-15T10:24:43;5.28;;;2.50;;
43337;SDS011;28933;52.492;13.434;2024-01-15T10:27:29;5.57;;;2.25;;
43337;SDS011;28933;52.492;13.434;2024-01-15T10:30:15;4.07;;;2.08;;
43337;SDS011;28933;52.492;13.434;2024-01-15T10:33:02;4.88;;;1.77;;
43337;SDS011;28933;52.492;13.434;2024-01-15T10:35:49;5.15;;;1.95;;
43337;SDS011;28933;52.492;13.434;2024-01-15T10:38:35;5.50;;;2.25;;
43337;SDS011;28933;52.492;13.434;2024-01-15T10:41:22;6.40;;;1.70;;
43337;SDS011;28933;52.492;13.434;2024-01-15T10:44:08;7.60;;;2.45;;
43337;SDS011;28933;52.492;13.434;2024-01-15T10:46:54;5.20;;;1.52;;
43337;SDS011;28933;52.492;13.434;2024-01-15T10:49:42;2.95;;;2.03;;
43337;SDS011;28933;52.492;13.434;2024-01-15T10:52:28;4.30;;;2.15;;
43337;SDS011;28933;52.492;13.434;2024-01-15T10:55:14;5.10;;;2.13;;
43337;SDS011;28933;52.492;13.434;2024-01-15T10:58:01;2.55;;;2.05;;
43337;SDS011;28933;52.492;13.434;2024-01-15T11:00:49;4.43;;;1.90;;
43337;SDS011;28933;52.492;13.434;2024-01-15T11:03:35;6.75;;;1.92;;
43337;SDS011;28933;52.492;13.434;2024-01-15T11:06:22;4.13;;;1.75;;
43337;SDS011;28933;52.492;13.434;2024-01-15T11:09:09;8.07;;;2.03;;
43337;SDS011;28933;52.492;13.434;2024-01-15T11:12:11;4.20;;;2.05;;
43337;SDS011;28933;52.492;13.434;2024-01-15T11:15:02;5.13;;;1.88;;
43337;SDS011;28933;52.492;13.434;2024-01-15T11:21:19;3.45;;;1.55;;
43337;SDS011;28933;52.492;13.434;2024-01-15T11:24:00;4.65;;;1.92;;
43337;SDS011;28933;52.492;13.434;2024-01-15T11:26:47;3.38;;;1.70;;
43337;SDS011;28933;52.492;13.434;2024-01-15T11:29:36;1.33;;;0.95;;
43337;SDS011;28933;52.492;13.434;2024-01-15T11:32:23;3.20;;;1.70;;
43337;SDS011;28933;52.492;13.434;2024-01-15T11:35:19;3.65;;;1.48;;
43337;SDS011;28933;52.492;13.434;2024-01-15T11:38:05;5.28;;;1.27;;
43337;SDS011;28933;52.492;13.434;2024-01-15T11:40:51;2.53;;;1.40;;
43337;SDS011;28933;52.492;13.434;2024-01-15T11:43:37;4.15;;;1.50;;
43337;SDS011;28933;52.492;13.434;2024-01-15T11:46:23;4.20;;;1.80;;
43337;SDS011;28933;52.492;13.434;2024-01-15T11:49:17;3.00;;;1.40;;
43337;SDS011;28933;52.492;13.434;2024-01-15T11:52:35;2.65;;;1.50;;
43337;SDS011;28933;52.492;13.434;2024-01-15T11:55:29;4.82;;;1.60;;
43337;SDS011;28933;52.492;13.434;2024-01-15T11:58:19;4.13;;;1.50;;
43337;SDS011;28933;52.492;13.434;2024-01-15T12:01:06;4.50;;;1.67;;
43337;SDS011;28933;52.492;13.434;2024-01-15T12:03:52;4.22;;;2.35;;
43337;SDS011;28933;52.492;13.434;2024-01-15T12:06:38;2.05;;;1.65;;
43337;SDS011;28933;52.492;13.434;2024-01-15T12:09:25;2.05;;;1.50;;
43337;SDS011;28933;52.492;13.434;2024-01-15T12:12:13;5.20;;;1.35;;
43337;SDS011;28933;52.492;13.434;2024-01-15T12:15:10;2.05;;;1.33;;
43337;SDS011;28933;52.492;13.434;2024-01-15T12:17:57;2.33;;;1.48;;
43337;SDS011;28933;52.492;13.434;2024-01-15T12:20:44;2.55;;;1.40;;
43337;SDS011;28933;52.492;13.434;2024-01-15T12:23:33;2.47;;;1.70;;
43337;SDS011;28933;52.492;13.434;2024-01-15T12:26:19;3.08;;;1.63;;
43337;SDS011;28933;52.492;13.434;2024-01-15T12:29:08;2.33;;;1.48;;
43337;SDS011;28933;52.492;13.434;2024-01-15T12:31:55;2.42;;;1.45;;
43337;SDS011;28933;52.492;13.434;2024-01-15T12:34:42;2.85;;;1.92;;
43337;SDS011;28933;52.492;13.434;2024-01-15T12:37:28;4.22;;;1.80;;
43337;SDS011;28933;52.492;13.434;2024-01-15T12:40:18;3.03;;;1.50;;
43337;SDS011;28933;52.492;13.434;2024-01-15T12:43:07;2.10;;;1.45;;
43337;SDS011;28933;52.492;13.434;2024-01-15T12:45:53;3.30;;;1.75;;
43337;SDS011;28933;52.492;13.434;2024-01-15T12:48:39;2.53;;;1.52;;
43337;SDS011;28933;52.492;13.434;2024-01-15T12:51:26;2.13;;;1.42;;
43337;SDS011;28933;52.492;13.434;2024-01-15T12:54:12;3.60;;;2.17;;
43337;SDS011;28933;52.492;13.434;2024-01-15T12:56:58;3.85;;;1.55;;
43337;SDS011;28933;52.492;13.434;2024-01-15T12:59:44;2.50;;;1.80;;
43337;SDS011;28933;52.492;13.434;2024-01-15T13:02:30;2.75;;;1.60;;
43337;SDS011;28933;52.492;13.434;2024-01-15T13:05:16;2.20;;;1.50;;
43337;SDS011;28933;52.492;13.434;2024-01-15T13:08:03;3.55;;;1.60;;
43337;SDS011;28933;52.492;13.434;2024-01-15T13:10:49;2.60;;;1.50;;
43337;SDS011;28933;52.492;13.434;2024-01-15T13:13:37;2.40;;;1.50;;
43337;SDS011;28933;52.492;13.434;2024-01-15T13:16:23;4.05;;;1.88;;
43337;SDS011;28933;52.492;13.434;2024-01-15T13:19:12;3.13;;;1.70;;
43337;SDS011;28933;52.492;13.434;2024-01-15T13:21:59;7.45;;;1.80;;
43337;SDS011;28933;52.492;13.434;2024-01-15T13:24:45;3.05;;;1.58;;
43337;SDS011;28933;52.492;13.434;2024-01-15T13:27:31;3.25;;;1.95;;
43337;SDS011;28933;52.492;13.434;2024-01-15T13:30:17;4.18;;;1.83;;
43337;SDS011;28933;52.492;13.434;2024-01-15T13:33:03;4.63;;;1.80;;
43337;SDS011;28933;52.492;13.434;2024-01-15T13:35:50;2.33;;;1.45;;
43337;SDS011;28933;52.492;13.434;2024-01-15T13:38:36;4.68;;;1.77;;
43337;SDS011;28933;52.492;13.434;2024-01-15T13:41:23;3.83;;;1.50;;
43337;SDS011;28933;52.492;13.434;2024-01-15T13:44:12;2.20;;;1.70;;
43337;SDS011;28933;52.492;13.434;2024-01-15T13:46:58;3.60;;;1.65;;
43337;SDS011;28933;52.492;13.434;2024-01-15T13:49:44;5.13;;;2.30;;
43337;SDS011;28933;52.492;13.434;2024-01-15T13:52:30;4.15;;;1.98;;
43337;SDS011;28933;52.492;13.434;2024-01-15T13:55:16;3.55;;;1.73;;
43337;SDS011;28933;52.492;13.434;2024-01-15T13:58:02;2.80;;;1.50;;
43337;SDS011;28933;52.492;13.434;2024-01-15T14:00:51;2.75;;;1.90;;
43337;SDS011;28933;52.492;13.434;2024-01-15T14:03:37;4.88;;;1.45;;
43337;SDS011;28933;52.492;13.434;2024-01-15T14:06:23;3.92;;;1.92;;
43337;SDS011;28933;52.492;13.434;2024-01-15T14:09:10;3.30;;;1.75;;
43337;SDS011;28933;52.492;13.434;2024-01-15T14:11:57;4.72;;;1.85;;
43337;SDS011;28933;52.492;13.434;2024-01-15T14:14:43;4.10;;;1.70;;
43337;SDS011;28933;52.492;13.434;2024-01-15T14:17:29;3.95;;;1.80;;
43337;SDS011;28933;52.492;13.434;2024-01-15T14:20:15;4.10;;;2.33;;
43337;SDS011;28933;52.492;13.434;2024-01-15T14:23:01;3.72;;;1.85;;
43337;SDS011;28933;52.492;13.434;2024-01-15T14:25:47;4.35;;;2.13;;
43337;SDS011;28933;52.492;13.434;2024-01-15T14:28:33;3.45;;;1.70;;
43337;SDS011;28933;52.492;13.434;2024-01-15T14:31:19;3.70;;;1.75;;
43337;SDS011;28933;52.492;13.434;2024-01-15T14:34:05;2.30;;;1.45;;
43337;SDS011;28933;52.492;13.434;2024-01-15T14:36:53;3.15;;;1.60;;
43337;SDS011;28933;52.492;13.434;2024-01-15T14:39:41;3.17;;;1.67;;
43337;SDS011;28933;52.492;13.434;2024-01-15T14:42:28;2.15;;;1.35;;
43337;SDS011;28933;52.492;13.434;2024-01-15T14:45:14;3.40;;;1.50;;
43337;SDS011;28933;52.492;13.434;2024-01-15T14:48:00;3.85;;;1.60;;
43337;SDS011;28933;52.492;13.434;2024-01-15T14:50:46;9.25;;;3.22;;
43337;SDS011;28933;52.492;13.434;2024-01-15T14:53:32;2.92;;;1.38;;
43337;SDS011;28933;52.492;13.434;2024-01-15T14:56:18;4.43;;;1.50;;
43337;SDS011;28933;52.492;13.434;2024-01-15T14:59:04;4.25;;;1.80;;
43337;SDS011;28933;52.492;13.434;2024-01-15T15:01:50;2.97;;;1.65;;
43337;SDS011;28933;52.492;13.434;2024-01-15T15:04:36;4.35;;;2.70;;
43337;SDS011;28933;52.492;13.434;2024-01-15T15:07:22;2.85;;;1.35;;
43337;SDS011;28933;52.492;13.434;2024-01-15T15:10:08;2.33;;;1.40;;
43337;SDS011;28933;52.492;13.434;2024-01-15T15:12:56;4.63;;;1.77;;
43337;SDS011;28933;52.492;13.434;2024-01-15T15:15:42;4.80;;;1.70;;
43337;SDS011;28933;52.492;13.434;2024-01-15T15:18:28;3.63;;;2.10;;
43337;SDS011;28933;52.492;13.434;2024-01-15T15:21:15;3.97;;;2.10;;
43337;SDS011;28933;52.492;13.434;2024-01-15T15:24:01;4.85;;;2.47;;
43337;SDS011;28933;52.492;13.434;2024-01-15T15:26:47;3.90;;;1.88;;
43337;SDS011;28933;52.492;13.434;2024-01-15T15:29:33;4.35;;;1.77;;
43337;SDS011;28933;52.492;13.434;2024-01-15T15:32:22;4.60;;;2.03;;
43337;SDS011;28933;52.492;13.434;2024-01-15T15:35:09;7.70;;;2.83;;
43337;SDS011;28933;52.492;13.434;2024-01-15T15:37:55;5.78;;;1.90;;
43337;SDS011;28933;52.492;13.434;2024-01-15T15:40:41;3.03;;;1.88;;
43337;SDS011;28933;52.492;13.434;2024-01-15T15:43:27;5.28;;;2.10;;
43337;SDS011;28933;52.492;13.434;2024-01-15T15:46:14;8.30;;;3.03;;
43337;SDS011;28933;52.492;13.434;2024-01-15T15:49:01;5.70;;;2.13;;
43337;SDS011;28933;52.492;13.434;2024-01-15T15:51:51;7.93;;;2.67;;
43337;SDS011;28933;52.492;13.434;2024-01-15T15:54:37;4.63;;;2.28;;
43337;SDS011;28933;52.492;13.434;2024-01-15T15:57:23;6.38;;;2.20;;
43337;SDS011;28933;52.492;13.434;2024-01-15T16:00:11;6.38;;;2.72;;
43337;SDS011;28933;52.492;13.434;2024-01-15T16:02:57;4.72;;;2.42;;
43337;SDS011;28933;52.492;13.434;2024-01-15T16:05:43;4.15;;;2.53;;
43337;SDS011;28933;52.492;13.434;2024-01-15T16:08:30;4.82;;;2.47;;
43337;SDS011;28933;52.492;13.434;2024-01-15T16:11:16;4.55;;;2.53;;
43337;SDS011;28933;52.492;13.434;2024-01-15T16:14:03;4.93;;;2.47;;
43337;SDS011;28933;52.492;13.434;2024-01-15T16:16:50;3.92;;;2.30;;
43337;SDS011;28933;52.492;13.434;2024-01-15T16:19:36;3.67;;;1.83;;
43337;SDS011;28933;52.492;13.434;2024-01-15T16:22:22;4.18;;;2.20;;
43337;SDS011;28933;52.492;13.434;2024-01-15T16:25:08;5.03;;;1.85;;
43337;SDS011;28933;52.492;13.434;2024-01-15T16:27:54;4.45;;;2.63;;
43337;SDS011;28933;52.492;13.434;2024-01-15T16:30:40;3.55;;;1.88;;
43337;SDS011;28933;52.492;13.434;2024-01-15T16:33:26;6.50;;;2.88;;
43337;SDS011;28933;52.492;13.434;2024-01-15T16:36:12;3.42;;;2.00;;
43337;SDS011;28933;52.492;13.434;2024-01-15T16:38:58;4.43;;;2.65;;
43337;SDS011;28933;52.492;13.434;2024-01-15T16:41:44;3.40;;;1.95;;
43337;SDS011;28933;52.492;13.434;2024-01-15T16:44:30;7.50;;;3.10;;
43337;SDS011;28933;52.492;13.434;2024-01-15T16:47:16;3.40;;;2.45;;
43337;SDS011;28933;52.492;13.434;2024-01-15T16:50:02;5.75;;;2.47;;
43337;SDS011;28933;52.492;13.434;2024-01-15T16:52:49;4.20;;;2.40;;
43337;SDS011;28933;52.492;13.434;2024-01-15T16:55:35;8.82;;;2.50;;
43337;SDS011;28933;52.492;13.434;2024-01-15T16:58:20;5.78;;;2.63;;
43337;SDS011;28933;52.492;13.434;2024-01-15T17:01:07;5.78;;;2.72;;
43337;SDS011;28933;52.492;13.434;2024-01-15T17:03:53;4.72;;;2.30;;
43337;SDS011;28933;52.492;13.434;2024-01-15T17:06:39;4.13;;;2.22;;
43337;SDS011;28933;52.492;13.434;2024-01-15T17:09:25;3.58;;;2.65;;
43337;SDS011;28933;52.492;13.434;2024-01-15T17:12:11;6.45;;;2.50;;
43337;SDS011;28933;52.492;13.434;2024-01-15T17:14:57;4.97;;;2.65;;
43337;SDS011;28933;52.492;13.434;2024-01-15T17:17:42;5.93;;;3.30;;
43337;SDS011;28933;52.492;13.434;2024-01-15T17:20:28;6.80;;;3.90;;
43337;SDS011;28933;52.492;13.434;2024-01-15T17:23:14;7.22;;;2.58;;
43337;SDS011;28933;52.492;13.434;2024-01-15T17:26:01;4.97;;;2.70;;
43337;SDS011;28933;52.492;13.434;2024-01-15T17:28:47;4.45;;;2.58;;
43337;SDS011;28933;52.492;13.434;2024-01-15T17:31:33;3.72;;;2.42;;
43337;SDS011;28933;52.492;13.434;2024-01-15T17:34:19;4.75;;;2.72;;
43337;SDS011;28933;52.492;13.434;2024-01-15T17:37:05;5.28;;;2.53;;
43337;SDS011;28933;52.492;13.434;2024-01-15T17:39:51;3.63;;;2.25;;
43337;SDS011;28933;52.492;13.434;2024-01-15T17:42:37;5.38;;;2.40;;
43337;SDS011;28933;52.492;13.434;2024-01-15T17:45:23;6.32;;;2.80;;
43337;SDS011;28933;52.492;13.434;2024-01-15T17:48:11;4.15;;;2.30;;
43337;SDS011;28933;52.492;13.434;2024-01-15T17:50:57;4.63;;;2.65;;
43337;SDS011;28933;52.492;13.434;2024-01-15T17:53:45;3.78;;;2.70;;
43337;SDS011;28933;52.492;13.434;2024-01-15T17:56:31;6.07;;;3.10;;
43337;SDS011;28933;52.492;13.434;2024-01-15T17:59:16;6.50;;;3.05;;
43337;SDS011;28933;52.492;13.434;2024-01-15T18:02:02;5.65;;;3.05;;
43337;SDS011;28933;52.492;13.434;2024-01-15T18:04:49;6.53;;;4.13;;
43337;SDS011;28933;52.492;13.434;2024-01-15T18:07:34;5.70;;;3.80;;
43337;SDS011;28933;52.492;13.434;2024-01-15T18:10:21;4.90;;;2.80;;
43337;SDS011;28933;52.492;13.434;2024-01-15T18:13:07;5.00;;;3.33;;
43337;SDS011;28933;52.492;13.434;2024-01-15T18:15:56;4.47;;;2.83;;
43337;SDS011;28933;52.492;13.434;2024-01-15T18:18:42;5.15;;;2.72;;
43337;SDS011;28933;52.492;13.434;2024-01-15T18:21:30;5.90;;;2.88;;
43337;SDS011;28933;52.492;13.434;2024-01-15T18:24:16;4.35;;;2.75;;
43337;SDS011;28933;52.492;13.434;2024-01-15T18:27:02;4.75;;;3.13;;
43337;SDS011;28933;52.492;13.434;2024-01-15T18:29:49;3.50;;;2.40;;
43337;SDS011;28933;52.492;13.434;2024-01-15T18:32:35;4.88;;;2.70;;
43337;SDS011;28933;52.492;13.434;2024-01-15T18:35:21;5.97;;;2.55;;
43337;SDS011;28933;52.492;13.434;2024-01-15T18:38:08;4.43;;;3.33;;
43337;SDS011;28933;52.492;13.434;2024-01-15T18:40:54;6.53;;;3.45;;
43337;SDS011;28933;52.492;13.434;2024-01-15T18:43:40;8.07;;;3.42;;
43337;SDS011;28933;52.492;13.434;2024-01-15T18:46:26;9.52;;;3.78;;
43337;SDS011;28933;52.492;13.434;2024-01-15T18:49:13;10.27;;;3.80;;
43337;SDS011;28933;52.492;13.434;2024-01-15T18:51:59;8.63;;;3.90;;
43337;SDS011;28933;52.492;13.434;2024-01-15T18:54:45;8.43;;;3.55;;
43337;SDS011;28933;52.492;13.434;2024-01-15T18:57:31;9.38;;;3.33;;
43337;SDS011;28933;52.492;13.434;2024-01-15T19:00:17;8.77;;;4.22;;
43337;SDS011;28933;52.492;13.434;2024-01-15T19:03:06;7.10;;;4.13;;
43337;SDS011;28933;52.492;13.434;2024-01-15T19:05:52;10.02;;;4.50;;
43337;SDS011;28933;52.492;13.434;2024-01-15T19:08:38;10.73;;;4.07;;
43337;SDS011;28933;52.492;13.434;2024-01-15T19:11:23;7.68;;;3.15;;
43337;SDS011;28933;52.492;13.434;2024-01-15T19:14:11;10.65;;;4.03;;
43337;SDS011;28933;52.492;13.434;2024-01-15T19:16:57;9.27;;;4.10;;
43337;SDS011;28933;52.492;13.434;2024-01-15T19:19:43;6.45;;;3.80;;
43337;SDS011;28933;52.492;13.434;2024-01-15T19:22:34;4.63;;;2.92;;
43337;SDS011;28933;52.492;13.434;2024-01-15T19:25:20;7.97;;;3.55;;
43337;SDS011;28933;52.492;13.434;2024-01-15T19:28:06;7.75;;;3.95;;
43337;SDS011;28933;52.492;13.434;2024-01-15T19:30:52;9.73;;;4.43;;
43337;SDS011;28933;52.492;13.434;2024-01-15T19:33:39;9.80;;;4.88;;
43337;SDS011;28933;52.492;13.434;2024-01-15T19:36:25;9.68;;;4.95;;
43337;SDS011;28933;52.492;13.434;2024-01-15T19:39:13;9.40;;;4.18;;
43337;SDS011;28933;52.492;13.434;2024-01-15T19:41:59;7.35;;;3.28;;
43337;SDS011;28933;52.492;13.434;2024-01-15T19:44:46;7.93;;;3.30;;
43337;SDS011;28933;52.492;13.434;2024-01-15T19:47:32;6.75;;;3.13;;
43337;SDS011;28933;52.492;13.434;2024-01-15T19:50:18;9.02;;;4.03;;
43337;SDS011;28933;52.492;13.434;2024-01-15T19:53:04;8.32;;;3.75;;
43337;SDS011;28933;52.492;13.434;2024-01-15T19:55:50;5.88;;;2.55;;
43337;SDS011;28933;52.492;13.434;2024-01-15T19:58:36;4.72;;;2.58;;
43337;SDS011;28933;52.492;13.434;2024-01-15T20:01:22;4.50;;;2.03;;
43337;SDS011;28933;52.492;13.434;2024-01-15T20:04:11;3.97;;;2.35;;
43337;SDS011;28933;52.492;13.434;2024-01-15T20:06:56;5.65;;;2.85;;
43337;SDS011;28933;52.492;13.434;2024-01-15T20:09:43;4.63;;;2.40;;
43337;SDS011;28933;52.492;13.434;2024-01-15T20:12:29;3.65;;;1.70;;
43337;SDS011;28933;52.492;13.434;2024-01-15T20:15:16;3.38;;;2.00;;
43337;SDS011;28933;52.492;13.434;2024-01-15T20:18:03;4.00;;;2.38;;
43337;SDS011;28933;52.492;13.434;2024-01-15T20:20:49;5.13;;;2.10;;
43337;SDS011;28933;52.492;13.434;2024-01-15T20:23:36;4.70;;;2.65;;
43337;SDS011;28933;52.492;13.434;2024-01-15T20:26:23;5.78;;;2.88;;
43337;SDS011;28933;52.492;13.434;2024-01-15T20:29:09;7.75;;;3.67;;
43337;SDS011;28933;52.492;13.434;2024-01-15T20:31:55;10.48;;;3.60;;
43337;SDS011;28933;52.492;13.434;2024-01-15T20:34:41;7.35;;;3.45;;
43337;SDS011;28933;52.492;13.434;2024-01-15T20:37:30;5.35;;;3.38;;
43337;SDS011;28933;52.492;13.434;2024-01-15T20:40:16;4.40;;;2.30;;
43337;SDS011;28933;52.492;13.434;2024-01-15T20:43:02;6.30;;;2.42;;
43337;SDS011;28933;52.492;13.434;2024-01-15T20:45:49;5.78;;;2.80;;
43337;SDS011;28933;52.492;13.434;2024-01-15T20:48:35;6.43;;;2.63;;
43337;SDS011;28933;52.492;13.434;2024-01-15T20:51:21;7.07;;;2.33;;
43337;SDS011;28933;52.492;13.434;2024-01-15T20:54:07;4.40;;;2.20;;
43337;SDS011;28933;52.492;13.434;2024-01-15T20:56:53;4.07;;;2.15;;
43337;SDS011;28933;52.492;13.434;2024-01-15T20:59:39;9.82;;;2.92;;
43337;SDS011;28933;52.492;13.434;2024-01-15T21:02:25;7.47;;;2.78;;
43337;SDS011;28933;52.492;13.434;2024-01-15T21:05:11;5.50;;;2.47;;
43337;SDS011;28933;52.492;13.434;2024-01-15T21:07:57;4.85;;;2.70;;
43337;SDS011;28933;52.492;13.434;2024-01-15T21:10:43;7.22;;;2.75;;
43337;SDS011;28933;52.492;13.434;2024-01-15T21:13:29;5.03;;;2.47;;
43337;SDS011;28933;52.492;13.434;2024-01-15T21:16:15;5.93;;;2.67;;
43337;SDS011;28933;52.492;13.434;2024-01-15T21:19:01;8.23;;;2.85;;
43337;SDS011;28933;52.492;13.434;2024-01-15T21:21:47;4.25;;;2.38;;
43337;SDS011;28933;52.492;13.434;2024-01-15T21:24:33;5.30;;;2.40;;
43337;SDS011;28933;52.492;13.434;2024-01-15T21:27:19;4.40;;;2.67;;
43337;SDS011;28933;52.492;13.434;2024-01-15T21:30:05;7.10;;;3.63;;
43337;SDS011;28933;52.492;13.434;2024-01-15T21:32:52;6.85;;;2.10;;
43337;SDS011;28933;52.492;13.434;2024-01-15T21:35:38;5.80;;;2.65;;
43337;SDS011;28933;52.492;13.434;2024-01-15T21:38:24;5.20;;;2.33;;
43337;SDS011;28933;52.492;13.434;2024-01-15T21:41:10;5.00;;;2.10;;
43337;SDS011;28933;52.492;13.434;2024-01-15T21:43:58;4.70;;;2.70;;
43337;SDS011;28933;52.492;13.434;2024-01-15T21:46:45;4.05;;;2.35;;
43337;SDS011;28933;52.492;13.434;2024-01-15T21:49:31;7.97;;;2.17;;
43337;SDS011;28933;52.492;13.434;2024-01-15T21:52:17;5.47;;;2.20;;
43337;SDS011;28933;52.492;13.434;2024-01-15T21:55:03;4.72;;;1.80;;
43337;SDS011;28933;52.492;13.434;2024-01-15T21:57:51;2.83;;;1.60;;
43337;SDS011;28933;52.492;13.434;2024-01-15T22:00:37;3.72;;;2.10;;
43337;SDS011;28933;52.492;13.434;2024-01-15T22:03:23;5.90;;;2.05;;
43337;SDS011;28933;52.492;13.434;2024-01-15T22:06:10;6.47;;;1.90;;
43337;SDS011;28933;52.492;13.434;2024-01-15T22:08:57;3.17;;;2.13;;
43337;SDS011;28933;52.492;13.434;2024-01-15T22:11:43;3.58;;;1.92;;
43337;SDS011;28933;52.492;13.434;2024-01-15T22:14:29;6.25;;;2.05;;
43337;SDS011;28933;52.492;13.434;2024-01-15T22:17:14;4.82;;;1.83;;
43337;SDS011;28933;52.492;13.434;2024-01-15T22:20:01;3.97;;;2.08;;
43337;SDS011;28933;52.492;13.434;2024-01-15T22:22:48;3.25;;;1.88;;
43337;SDS011;28933;52.492;13.434;2024-01-15T22:25:34;2.85;;;2.17;;
43337;SDS011;28933;52.492;13.434;2024-01-15T22:28:20;2.72;;;1.70;;
43337;SDS011;28933;52.492;13.434;2024-01-15T22:31:06;3.92;;;1.70;;
43337;SDS011;28933;52.492;13.434;2024-01-15T22:33:52;6.75;;;2.70;;
43337;SDS011;28933;52.492;13.434;2024-01-15T22:36:39;4.80;;;2.03;;
43337;SDS011;28933;52.492;13.434;2024-01-15T22:39:24;4.68;;;2.05;;
43337;SDS011;28933;52.492;13.434;2024-01-15T22:42:10;3.72;;;1.70;;
43337;SDS011;28933;52.492;13.434;2024-01-15T22:44:56;4.25;;;2.15;;
43337;SDS011;28933;52.492;13.434;2024-01-15T22:47:42;3.53;;;1.88;;
43337;SDS011;28933;52.492;13.434;2024-01-15T22:50:28;3.47;;;2.05;;
43337;SDS011;28933;52.492;13.434;2024-01-15T22:53:14;4.45;;;2.97;;
43337;SDS011;28933;52.492;13.434;2024-01-15T22:56:03;5.20;;;2.33;;
43337;SDS011;28933;52.492;13.434;2024-01-15T22:58:49;4.55;;;2.33;;